Southampton, New Jersey
Current Conditions -  °F | °C
As of 1:54 AM on Sunday 23 Nov 2014 (Local Time) from KVAY Reporting Station
Overcast Overcast  
Wind Chill:   Ceiling: 11000
Heat Index:   Visibility: 10mi
Dew Point: -6°   Wind: 10mph
Humidity: 43%   Direction: 230°SW
Pressure: 30.23"   Gusts: 17mph
Location:  39.7955°N, 74.6301°W
Report Text: KVAY 230654Z AUTO 23009G15KT 10SM OVC110 06/M06 A3023 RMK AO2 SLP235 T00611056
Loading
Personal Weather Stations






























Interactive Weather Map New forecast layout! Learn more

10-Day Weather Forecast

Advertisements
Track Severe Weather on mobile